sensor_id;sensor_type;location;lat;lon;timestamp;P1;durP1;ratioP1;P2;durP2;ratioP2
65665;SDS011;52365;47.464;18.976;2023-10-31T00:00:03;10.18;;;5.00;;
65665;SDS011;52365;47.464;18.976;2023-10-31T00:00:25;10.65;;;5.12;;
65665;SDS011;52365;47.464;18.976;2023-10-31T00:00:47;11.20;;;5.47;;
65665;SDS011;52365;47.464;18.976;2023-10-31T00:01:08;10.00;;;5.18;;
65665;SDS011;52365;47.464;18.976;2023-10-31T00:01:35;11.73;;;5.05;;
65665;SDS011;52365;47.464;18.976;2023-10-31T00:01:56;12.10;;;5.10;;
65665;SDS011;52365;47.464;18.976;2023-10-31T00:02:17;12.73;;;5.47;;
65665;SDS011;52365;47.464;18.976;2023-10-31T00:02:38;9.35;;;5.20;;
65665;SDS011;52365;47.464;18.976;2023-10-31T00:02:59;10.13;;;5.12;;
65665;SDS011;52365;47.464;18.976;2023-10-31T00:03:20;9.60;;;5.22;;
65665;SDS011;52365;47.464;18.976;2023-10-31T00:03:41;9.00;;;5.12;;
65665;SDS011;52365;47.464;18.976;2023-10-31T00:04:03;10.23;;;5.22;;
65665;SDS011;52365;47.464;18.976;2023-10-31T00:04:24;9.82;;;5.05;;
65665;SDS011;52365;47.464;18.976;2023-10-31T00:04:46;11.20;;;5.20;;
65665;SDS011;52365;47.464;18.976;2023-10-31T00:05:07;9.77;;;5.22;;
65665;SDS011;52365;47.464;18.976;2023-10-31T00:05:28;11.38;;;5.35;;
65665;SDS011;52365;47.464;18.976;2023-10-31T00:05:49;9.15;;;4.82;;
65665;SDS011;52365;47.464;18.976;2023-10-31T00:06:10;9.20;;;5.10;;
65665;SDS011;52365;47.464;18.976;2023-10-31T00:06:31;9.63;;;4.85;;
65665;SDS011;52365;47.464;18.976;2023-10-31T00:06:52;8.65;;;5.05;;
65665;SDS011;52365;47.464;18.976;2023-10-31T00:07:13;9.90;;;5.30;;
65665;SDS011;52365;47.464;18.976;2023-10-31T00:07:34;8.68;;;4.95;;
65665;SDS011;52365;47.464;18.976;2023-10-31T00:07:55;9.85;;;4.97;;
65665;SDS011;52365;47.464;18.976;2023-10-31T00:08:16;11.32;;;5.32;;
65665;SDS011;52365;47.464;18.976;2023-10-31T00:08:37;10.07;;;5.37;;
65665;SDS011;52365;47.464;18.976;2023-10-31T00:08:58;9.55;;;4.85;;
65665;SDS011;52365;47.464;18.976;2023-10-31T00:09:20;9.63;;;5.20;;
65665;SDS011;52365;47.464;18.976;2023-10-31T00:09:41;9.88;;;5.30;;
65665;SDS011;52365;47.464;18.976;2023-10-31T00:10:02;10.20;;;5.20;;
65665;SDS011;52365;47.464;18.976;2023-10-31T00:10:23;8.82;;;5.18;;
65665;SDS011;52365;47.464;18.976;2023-10-31T00:10:44;9.55;;;5.28;;
65665;SDS011;52365;47.464;18.976;2023-10-31T00:11:05;10.23;;;5.50;;
65665;SDS011;52365;47.464;18.976;2023-10-31T00:11:26;10.73;;;5.32;;
65665;SDS011;52365;47.464;18.976;2023-10-31T00:11:48;9.35;;;5.00;;
65665;SDS011;52365;47.464;18.976;2023-10-31T00:12:09;9.90;;;5.10;;
65665;SDS011;52365;47.464;18.976;2023-10-31T00:12:30;9.65;;;5.05;;
65665;SDS011;52365;47.464;18.976;2023-10-31T00:12:51;9.13;;;4.75;;
65665;SDS011;52365;47.464;18.976;2023-10-31T00:13:12;10.50;;;4.95;;
65665;SDS011;52365;47.464;18.976;2023-10-31T00:13:33;9.45;;;4.78;;
65665;SDS011;52365;47.464;18.976;2023-10-31T00:13:54;11.90;;;5.50;;
65665;SDS011;52365;47.464;18.976;2023-10-31T00:14:15;13.07;;;5.32;;
65665;SDS011;52365;47.464;18.976;2023-10-31T00:14:36;11.60;;;5.50;;
65665;SDS011;52365;47.464;18.976;2023-10-31T00:14:52;10.85;;;5.35;;
65665;SDS011;52365;47.464;18.976;2023-10-31T00:15:14;10.73;;;5.43;;
65665;SDS011;52365;47.464;18.976;2023-10-31T00:15:35;9.85;;;5.20;;
65665;SDS011;52365;47.464;18.976;2023-10-31T00:15:56;9.50;;;4.97;;
65665;SDS011;52365;47.464;18.976;2023-10-31T00:16:17;10.20;;;5.20;;
65665;SDS011;52365;47.464;18.976;2023-10-31T00:16:38;11.15;;;5.28;;
65665;SDS011;52365;47.464;18.976;2023-10-31T00:16:59;10.70;;;5.65;;
65665;SDS011;52365;47.464;18.976;2023-10-31T00:17:20;8.70;;;5.22;;
65665;SDS011;52365;47.464;18.976;2023-10-31T00:17:41;8.55;;;5.05;;
65665;SDS011;52365;47.464;18.976;2023-10-31T00:18:02;8.40;;;4.90;;
65665;SDS011;52365;47.464;18.976;2023-10-31T00:18:23;9.98;;;5.00;;
65665;SDS011;52365;47.464;18.976;2023-10-31T00:18:44;9.02;;;5.10;;
65665;SDS011;52365;47.464;18.976;2023-10-31T00:19:05;10.20;;;5.35;;
65665;SDS011;52365;47.464;18.976;2023-10-31T00:19:26;9.55;;;5.10;;
65665;SDS011;52365;47.464;18.976;2023-10-31T00:19:48;8.60;;;4.95;;
65665;SDS011;52365;47.464;18.976;2023-10-31T00:20:09;9.18;;;5.55;;
65665;SDS011;52365;47.464;18.976;2023-10-31T00:20:30;9.93;;;5.47;;
65665;SDS011;52365;47.464;18.976;2023-10-31T00:20:51;8.20;;;4.87;;
65665;SDS011;52365;47.464;18.976;2023-10-31T00:21:12;9.97;;;5.13;;
65665;SDS011;52365;47.464;18.976;2023-10-31T00:21:33;10.05;;;5.37;;
65665;SDS011;52365;47.464;18.976;2023-10-31T00:21:54;10.60;;;5.07;;
65665;SDS011;52365;47.464;18.976;2023-10-31T00:22:15;9.50;;;5.10;;
65665;SDS011;52365;47.464;18.976;2023-10-31T00:22:36;9.02;;;5.20;;
65665;SDS011;52365;47.464;18.976;2023-10-31T00:22:58;9.30;;;5.18;;
65665;SDS011;52365;47.464;18.976;2023-10-31T00:23:19;8.50;;;5.15;;
65665;SDS011;52365;47.464;18.976;2023-10-31T00:23:46;9.25;;;4.85;;
65665;SDS011;52365;47.464;18.976;2023-10-31T00:24:08;9.13;;;5.05;;
65665;SDS011;52365;47.464;18.976;2023-10-31T00:24:29;9.05;;;5.00;;
65665;SDS011;52365;47.464;18.976;2023-10-31T00:24:52;10.30;;;5.25;;
65665;SDS011;52365;47.464;18.976;2023-10-31T00:25:13;11.65;;;5.20;;
65665;SDS011;52365;47.464;18.976;2023-10-31T00:25:34;9.35;;;5.12;;
65665;SDS011;52365;47.464;18.976;2023-10-31T00:25:50;8.88;;;5.00;;
65665;SDS011;52365;47.464;18.976;2023-10-31T00:26:12;10.57;;;5.12;;
65665;SDS011;52365;47.464;18.976;2023-10-31T00:26:33;10.07;;;5.37;;
65665;SDS011;52365;47.464;18.976;2023-10-31T00:26:54;12.07;;;6.82;;
65665;SDS011;52365;47.464;18.976;2023-10-31T00:27:15;141.12;;;97.82;;
65665;SDS011;52365;47.464;18.976;2023-10-31T00:27:36;116.53;;;79.43;;
65665;SDS011;52365;47.464;18.976;2023-10-31T00:27:57;52.08;;;33.95;;
65665;SDS011;52365;47.464;18.976;2023-10-31T00:28:18;22.62;;;13.10;;
65665;SDS011;52365;47.464;18.976;2023-10-31T00:28:40;13.45;;;7.22;;
65665;SDS011;52365;47.464;18.976;2023-10-31T00:29:01;12.27;;;5.72;;
65665;SDS011;52365;47.464;18.976;2023-10-31T00:29:22;11.85;;;5.78;;
65665;SDS011;52365;47.464;18.976;2023-10-31T00:29:43;10.88;;;5.37;;
65665;SDS011;52365;47.464;18.976;2023-10-31T00:30:04;9.70;;;4.82;;
65665;SDS011;52365;47.464;18.976;2023-10-31T00:30:26;10.02;;;4.97;;
65665;SDS011;52365;47.464;18.976;2023-10-31T00:30:47;10.68;;;5.15;;
65665;SDS011;52365;47.464;18.976;2023-10-31T00:31:09;10.65;;;5.07;;
65665;SDS011;52365;47.464;18.976;2023-10-31T00:31:32;9.77;;;5.03;;
65665;SDS011;52365;47.464;18.976;2023-10-31T00:31:55;10.13;;;5.28;;
65665;SDS011;52365;47.464;18.976;2023-10-31T00:32:16;10.45;;;5.32;;
65665;SDS011;52365;47.464;18.976;2023-10-31T00:32:37;9.65;;;5.10;;
65665;SDS011;52365;47.464;18.976;2023-10-31T00:32:58;9.57;;;5.15;;
65665;SDS011;52365;47.464;18.976;2023-10-31T00:33:19;10.38;;;5.28;;
65665;SDS011;52365;47.464;18.976;2023-10-31T00:33:40;10.95;;;5.40;;
65665;SDS011;52365;47.464;18.976;2023-10-31T00:34:02;10.40;;;5.32;;
65665;SDS011;52365;47.464;18.976;2023-10-31T00:34:23;11.02;;;5.20;;
65665;SDS011;52365;47.464;18.976;2023-10-31T00:34:44;12.15;;;5.20;;
65665;SDS011;52365;47.464;18.976;2023-10-31T00:35:05;10.05;;;5.03;;
65665;SDS011;52365;47.464;18.976;2023-10-31T00:35:26;9.60;;;5.15;;
65665;SDS011;52365;47.464;18.976;2023-10-31T00:35:47;8.90;;;5.00;;
65665;SDS011;52365;47.464;18.976;2023-10-31T00:36:09;11.02;;;5.18;;
65665;SDS011;52365;47.464;18.976;2023-10-31T00:36:30;9.87;;;5.20;;
65665;SDS011;52365;47.464;18.976;2023-10-31T00:36:51;11.02;;;5.35;;
65665;SDS011;52365;47.464;18.976;2023-10-31T00:37:12;10.38;;;5.45;;
65665;SDS011;52365;47.464;18.976;2023-10-31T00:37:33;10.35;;;4.97;;
65665;SDS011;52365;47.464;18.976;2023-10-31T00:37:54;10.23;;;5.25;;
65665;SDS011;52365;47.464;18.976;2023-10-31T00:38:15;11.00;;;6.03;;
65665;SDS011;52365;47.464;18.976;2023-10-31T00:38:36;10.00;;;5.32;;
65665;SDS011;52365;47.464;18.976;2023-10-31T00:38:57;8.95;;;5.05;;
65665;SDS011;52365;47.464;18.976;2023-10-31T00:39:18;10.10;;;5.12;;
65665;SDS011;52365;47.464;18.976;2023-10-31T00:39:39;10.20;;;5.30;;
65665;SDS011;52365;47.464;18.976;2023-10-31T00:40:00;14.35;;;5.95;;
65665;SDS011;52365;47.464;18.976;2023-10-31T00:40:21;14.52;;;5.50;;
65665;SDS011;52365;47.464;18.976;2023-10-31T00:40:43;11.30;;;5.45;;
65665;SDS011;52365;47.464;18.976;2023-10-31T00:41:04;9.38;;;5.45;;
65665;SDS011;52365;47.464;18.976;2023-10-31T00:41:20;10.10;;;5.30;;
65665;SDS011;52365;47.464;18.976;2023-10-31T00:41:43;11.10;;;5.32;;
65665;SDS011;52365;47.464;18.976;2023-10-31T00:42:08;11.05;;;5.53;;
65665;SDS011;52365;47.464;18.976;2023-10-31T00:42:29;9.93;;;5.70;;
65665;SDS011;52365;47.464;18.976;2023-10-31T00:42:50;10.30;;;5.53;;
65665;SDS011;52365;47.464;18.976;2023-10-31T00:43:11;9.45;;;5.40;;
65665;SDS011;52365;47.464;18.976;2023-10-31T00:43:32;9.68;;;4.97;;
65665;SDS011;52365;47.464;18.976;2023-10-31T00:43:53;10.48;;;5.07;;
65665;SDS011;52365;47.464;18.976;2023-10-31T00:44:14;10.65;;;5.37;;
65665;SDS011;52365;47.464;18.976;2023-10-31T00:44:35;10.73;;;5.57;;
65665;SDS011;52365;47.464;18.976;2023-10-31T00:44:56;10.80;;;5.30;;
65665;SDS011;52365;47.464;18.976;2023-10-31T00:45:17;10.50;;;5.22;;
65665;SDS011;52365;47.464;18.976;2023-10-31T00:45:34;10.10;;;5.18;;
65665;SDS011;52365;47.464;18.976;2023-10-31T00:45:55;10.70;;;5.40;;
65665;SDS011;52365;47.464;18.976;2023-10-31T00:46:16;9.88;;;5.37;;
65665;SDS011;52365;47.464;18.976;2023-10-31T00:46:37;9.25;;;5.70;;
65665;SDS011;52365;47.464;18.976;2023-10-31T00:46:58;9.23;;;5.37;;
65665;SDS011;52365;47.464;18.976;2023-10-31T00:47:19;10.32;;;5.30;;
65665;SDS011;52365;47.464;18.976;2023-10-31T00:47:40;10.10;;;5.07;;
65665;SDS011;52365;47.464;18.976;2023-10-31T00:48:02;9.20;;;5.10;;
65665;SDS011;52365;47.464;18.976;2023-10-31T00:48:18;9.57;;;5.47;;
65665;SDS011;52365;47.464;18.976;2023-10-31T00:48:39;11.43;;;5.72;;
65665;SDS011;52365;47.464;18.976;2023-10-31T00:49:01;9.90;;;5.50;;
65665;SDS011;52365;47.464;18.976;2023-10-31T00:49:22;12.73;;;5.67;;
65665;SDS011;52365;47.464;18.976;2023-10-31T00:49:43;12.13;;;5.47;;
65665;SDS011;52365;47.464;18.976;2023-10-31T00:50:04;10.00;;;5.12;;
65665;SDS011;52365;47.464;18.976;2023-10-31T00:50:25;10.60;;;5.50;;
65665;SDS011;52365;47.464;18.976;2023-10-31T00:50:46;9.88;;;5.53;;
65665;SDS011;52365;47.464;18.976;2023-10-31T00:51:07;9.13;;;5.35;;
65665;SDS011;52365;47.464;18.976;2023-10-31T00:51:28;10.15;;;5.82;;
65665;SDS011;52365;47.464;18.976;2023-10-31T00:51:49;9.90;;;5.80;;
65665;SDS011;52365;47.464;18.976;2023-10-31T00:52:11;11.15;;;5.82;;
65665;SDS011;52365;47.464;18.976;2023-10-31T00:52:32;11.80;;;5.82;;
65665;SDS011;52365;47.464;18.976;2023-10-31T00:52:53;10.88;;;5.80;;
65665;SDS011;52365;47.464;18.976;2023-10-31T00:53:14;11.90;;;5.82;;
65665;SDS011;52365;47.464;18.976;2023-10-31T00:53:36;10.52;;;5.97;;
65665;SDS011;52365;47.464;18.976;2023-10-31T00:53:57;11.85;;;5.97;;
65665;SDS011;52365;47.464;18.976;2023-10-31T00:54:18;11.18;;;5.62;;
65665;SDS011;52365;47.464;18.976;2023-10-31T00:54:39;10.83;;;5.30;;
65665;SDS011;52365;47.464;18.976;2023-10-31T00:55:01;10.13;;;5.70;;
65665;SDS011;52365;47.464;18.976;2023-10-31T00:55:22;10.00;;;5.82;;
65665;SDS011;52365;47.464;18.976;2023-10-31T00:55:38;11.57;;;6.00;;
65665;SDS011;52365;47.464;18.976;2023-10-31T00:55:59;12.05;;;5.62;;
65665;SDS011;52365;47.464;18.976;2023-10-31T00:56:20;13.43;;;5.93;;
65665;SDS011;52365;47.464;18.976;2023-10-31T00:56:41;9.90;;;5.80;;
65665;SDS011;52365;47.464;18.976;2023-10-31T00:57:02;10.43;;;5.75;;
65665;SDS011;52365;47.464;18.976;2023-10-31T00:57:23;9.75;;;5.75;;
65665;SDS011;52365;47.464;18.976;2023-10-31T00:57:44;9.63;;;5.78;;
65665;SDS011;52365;47.464;18.976;2023-10-31T00:58:05;10.43;;;5.90;;
65665;SDS011;52365;47.464;18.976;2023-10-31T00:58:26;11.75;;;6.00;;
65665;SDS011;52365;47.464;18.976;2023-10-31T00:58:47;12.13;;;5.90;;
65665;SDS011;52365;47.464;18.976;2023-10-31T00:59:08;12.73;;;6.35;;
65665;SDS011;52365;47.464;18.976;2023-10-31T00:59:29;12.00;;;6.10;;
65665;SDS011;52365;47.464;18.976;2023-10-31T00:59:50;14.57;;;8.13;;
65665;SDS011;52365;47.464;18.976;2023-10-31T01:00:11;14.15;;;8.60;;
65665;SDS011;52365;47.464;18.976;2023-10-31T01:00:33;12.88;;;6.40;;
65665;SDS011;52365;47.464;18.976;2023-10-31T01:00:54;10.80;;;5.55;;
65665;SDS011;52365;47.464;18.976;2023-10-31T01:01:15;10.20;;;5.68;;
65665;SDS011;52365;47.464;18.976;2023-10-31T01:01:36;10.00;;;5.65;;
65665;SDS011;52365;47.464;18.976;2023-10-31T01:01:58;12.60;;;5.43;;
65665;SDS011;52365;47.464;18.976;2023-10-31T01:02:19;10.85;;;5.30;;
65665;SDS011;52365;47.464;18.976;2023-10-31T01:02:40;12.18;;;5.80;;
65665;SDS011;52365;47.464;18.976;2023-10-31T01:03:01;11.88;;;6.10;;
65665;SDS011;52365;47.464;18.976;2023-10-31T01:03:22;11.75;;;6.50;;
65665;SDS011;52365;47.464;18.976;2023-10-31T01:03:44;12.73;;;6.40;;
65665;SDS011;52365;47.464;18.976;2023-10-31T01:04:05;12.82;;;6.18;;
65665;SDS011;52365;47.464;18.976;2023-10-31T01:04:26;14.60;;;6.87;;
65665;SDS011;52365;47.464;18.976;2023-10-31T01:04:47;10.40;;;6.10;;
65665;SDS011;52365;47.464;18.976;2023-10-31T01:05:08;11.57;;;6.12;;
65665;SDS011;52365;47.464;18.976;2023-10-31T01:05:29;11.25;;;5.93;;
65665;SDS011;52365;47.464;18.976;2023-10-31T01:05:50;11.40;;;5.57;;
65665;SDS011;52365;47.464;18.976;2023-10-31T01:06:11;12.88;;;5.70;;
65665;SDS011;52365;47.464;18.976;2023-10-31T01:06:32;11.48;;;6.25;;
65665;SDS011;52365;47.464;18.976;2023-10-31T01:06:53;10.93;;;5.93;;
65665;SDS011;52365;47.464;18.976;2023-10-31T01:07:14;11.65;;;5.95;;
65665;SDS011;52365;47.464;18.976;2023-10-31T01:07:37;13.27;;;6.30;;
65665;SDS011;52365;47.464;18.976;2023-10-31T01:07:58;11.30;;;6.05;;
65665;SDS011;52365;47.464;18.976;2023-10-31T01:08:19;12.88;;;6.12;;
65665;SDS011;52365;47.464;18.976;2023-10-31T01:08:40;13.43;;;6.00;;
65665;SDS011;52365;47.464;18.976;2023-10-31T01:09:01;12.15;;;5.87;;
65665;SDS011;52365;47.464;18.976;2023-10-31T01:09:23;11.40;;;5.53;;
65665;SDS011;52365;47.464;18.976;2023-10-31T01:09:44;12.73;;;6.00;;
65665;SDS011;52365;47.464;18.976;2023-10-31T01:10:05;11.85;;;6.07;;
65665;SDS011;52365;47.464;18.976;2023-10-31T01:10:27;11.20;;;5.87;;
65665;SDS011;52365;47.464;18.976;2023-10-31T01:10:48;10.68;;;6.10;;
65665;SDS011;52365;47.464;18.976;2023-10-31T01:11:09;11.82;;;6.50;;
65665;SDS011;52365;47.464;18.976;2023-10-31T01:11:30;11.18;;;6.53;;
65665;SDS011;52365;47.464;18.976;2023-10-31T01:11:51;10.65;;;6.30;;
65665;SDS011;52365;47.464;18.976;2023-10-31T01:12:12;10.55;;;6.00;;
65665;SDS011;52365;47.464;18.976;2023-10-31T01:12:33;11.10;;;5.97;;
65665;SDS011;52365;47.464;18.976;2023-10-31T01:12:55;10.32;;;5.93;;
65665;SDS011;52365;47.464;18.976;2023-10-31T01:13:16;9.90;;;5.95;;
65665;SDS011;52365;47.464;18.976;2023-10-31T01:13:37;10.13;;;5.85;;
65665;SDS011;52365;47.464;18.976;2023-10-31T01:13:58;10.85;;;6.15;;
65665;SDS011;52365;47.464;18.976;2023-10-31T01:14:19;10.30;;;6.12;;
65665;SDS011;52365;47.464;18.976;2023-10-31T01:14:40;10.10;;;5.68;;
65665;SDS011;52365;47.464;18.976;2023-10-31T01:15:01;11.98;;;5.90;;
65665;SDS011;52365;47.464;18.976;2023-10-31T01:15:22;11.57;;;5.55;;
65665;SDS011;52365;47.464;18.976;2023-10-31T01:15:43;12.90;;;5.90;;
65665;SDS011;52365;47.464;18.976;2023-10-31T01:16:04;12.45;;;6.20;;
65665;SDS011;52365;47.464;18.976;2023-10-31T01:16:26;11.48;;;6.03;;
65665;SDS011;52365;47.464;18.976;2023-10-31T01:16:47;11.85;;;6.20;;
65665;SDS011;52365;47.464;18.976;2023-10-31T01:17:08;12.68;;;5.95;;
65665;SDS011;52365;47.464;18.976;2023-10-31T01:17:29;11.20;;;6.20;;
65665;SDS011;52365;47.464;18.976;2023-10-31T01:17:51;11.00;;;6.00;;
65665;SDS011;52365;47.464;18.976;2023-10-31T01:18:12;11.52;;;5.82;;
65665;SDS011;52365;47.464;18.976;2023-10-31T01:18:33;11.68;;;5.75;;
65665;SDS011;52365;47.464;18.976;2023-10-31T01:18:54;12.00;;;6.30;;
65665;SDS011;52365;47.464;18.976;2023-10-31T01:19:15;10.65;;;6.03;;
65665;SDS011;52365;47.464;18.976;2023-10-31T01:19:36;10.90;;;5.43;;
65665;SDS011;52365;47.464;18.976;2023-10-31T01:19:52;11.60;;;5.50;;
65665;SDS011;52365;47.464;18.976;2023-10-31T01:20:13;10.55;;;5.15;;
65665;SDS011;52365;47.464;18.976;2023-10-31T01:20:30;11.27;;;5.85;;
65665;SDS011;52365;47.464;18.976;2023-10-31T01:20:51;12.82;;;6.03;;
65665;SDS011;52365;47.464;18.976;2023-10-31T01:21:12;11.98;;;5.90;;
65665;SDS011;52365;47.464;18.976;2023-10-31T01:21:33;9.65;;;5.57;;
65665;SDS011;52365;47.464;18.976;2023-10-31T01:21:55;8.70;;;5.40;;
65665;SDS011;52365;47.464;18.976;2023-10-31T01:22:16;10.18;;;5.47;;
65665;SDS011;52365;47.464;18.976;2023-10-31T01:22:32;10.77;;;5.75;;
65665;SDS011;52365;47.464;18.976;2023-10-31T01:22:53;10.45;;;5.87;;
65665;SDS011;52365;47.464;18.976;2023-10-31T01:23:14;11.75;;;5.95;;
65665;SDS011;52365;47.464;18.976;2023-10-31T01:23:35;11.43;;;6.07;;
65665;SDS011;52365;47.464;18.976;2023-10-31T01:23:51;10.65;;;6.03;;
65665;SDS011;52365;47.464;18.976;2023-10-31T01:24:12;10.55;;;5.68;;
65665;SDS011;52365;47.464;18.976;2023-10-31T01:24:34;11.65;;;5.93;;
65665;SDS011;52365;47.464;18.976;2023-10-31T01:24:55;10.57;;;5.70;;
65665;SDS011;52365;47.464;18.976;2023-10-31T01:25:16;10.82;;;5.72;;
65665;SDS011;52365;47.464;18.976;2023-10-31T01:25:37;9.18;;;5.35;;
65665;SDS011;52365;47.464;18.976;2023-10-31T01:25:53;9.07;;;5.30;;
65665;SDS011;52365;47.464;18.976;2023-10-31T01:26:14;10.02;;;5.95;;
65665;SDS011;52365;47.464;18.976;2023-10-31T01:26:35;10.95;;;5.80;;
65665;SDS011;52365;47.464;18.976;2023-10-31T01:26:52;11.23;;;5.80;;
65665;SDS011;52365;47.464;18.976;2023-10-31T01:27:13;12.63;;;5.97;;
65665;SDS011;52365;47.464;18.976;2023-10-31T01:27:34;11.00;;;5.47;;
65665;SDS011;52365;47.464;18.976;2023-10-31T01:27:55;11.07;;;5.53;;
65665;SDS011;52365;47.464;18.976;2023-10-31T01:28:16;11.27;;;6.03;;
65665;SDS011;52365;47.464;18.976;2023-10-31T01:28:37;9.00;;;5.70;;
65665;SDS011;52365;47.464;18.976;2023-10-31T01:28:58;10.85;;;5.75;;
65665;SDS011;52365;47.464;18.976;2023-10-31T01:29:19;9.93;;;5.37;;
65665;SDS011;52365;47.464;18.976;2023-10-31T01:29:40;11.38;;;5.50;;
65665;SDS011;52365;47.464;18.976;2023-10-31T01:30:01;9.98;;;5.85;;
65665;SDS011;52365;47.464;18.976;2023-10-31T01:30:22;10.18;;;5.75;;
65665;SDS011;52365;47.464;18.976;2023-10-31T01:30:44;9.68;;;5.50;;
65665;SDS011;52365;47.464;18.976;2023-10-31T01:31:05;11.82;;;5.95;;
65665;SDS011;52365;47.464;18.976;2023-10-31T01:31:27;13.02;;;6.25;;
65665;SDS011;52365;47.464;18.976;2023-10-31T01:31:48;10.70;;;5.78;;
65665;SDS011;52365;47.464;18.976;2023-10-31T01:32:10;13.05;;;5.60;;
65665;SDS011;52365;47.464;18.976;2023-10-31T01:32:31;14.00;;;5.70;;
65665;SDS011;52365;47.464;18.976;2023-10-31T01:32:52;11.93;;;5.72;;
65665;SDS011;52365;47.464;18.976;2023-10-31T01:33:13;11.32;;;5.90;;
65665;SDS011;52365;47.464;18.976;2023-10-31T01:33:35;10.57;;;5.93;;
65665;SDS011;52365;47.464;18.976;2023-10-31T01:33:56;12.68;;;6.12;;
65665;SDS011;52365;47.464;18.976;2023-10-31T01:34:17;12.48;;;5.70;;
65665;SDS011;52365;47.464;18.976;2023-10-31T01:34:38;9.65;;;5.60;;
65665;SDS011;52365;47.464;18.976;2023-10-31T01:34:55;10.23;;;6.05;;
65665;SDS011;52365;47.464;18.976;2023-10-31T01:35:16;10.85;;;5.90;;
65665;SDS011;52365;47.464;18.976;2023-10-31T01:35:37;12.20;;;5.85;;
65665;SDS011;52365;47.464;18.976;2023-10-31T01:35:58;11.50;;;5.80;;
65665;SDS011;52365;47.464;18.976;2023-10-31T01:36:19;10.40;;;5.78;;
65665;SDS011;52365;47.464;18.976;2023-10-31T01:36:46;9.95;;;5.57;;
65665;SDS011;52365;47.464;18.976;2023-10-31T01:37:07;9.68;;;5.37;;
65665;SDS011;52365;47.464;18.976;2023-10-31T01:37:28;9.80;;;5.70;;
65665;SDS011;52365;47.464;18.976;2023-10-31T01:37:49;11.02;;;5.90;;
65665;SDS011;52365;47.464;18.976;2023-10-31T01:38:05;10.70;;;5.57;;
65665;SDS011;52365;47.464;18.976;2023-10-31T01:38:26;11.52;;;5.68;;
65665;SDS011;52365;47.464;18.976;2023-10-31T01:38:47;13.70;;;5.70;;
65665;SDS011;52365;47.464;18.976;2023-10-31T01:39:03;11.07;;;5.57;;
65665;SDS011;52365;47.464;18.976;2023-10-31T01:39:19;9.65;;;5.57;;
65665;SDS011;52365;47.464;18.976;2023-10-31T01:39:40;13.05;;;6.00;;
65665;SDS011;52365;47.464;18.976;2023-10-31T01:40:02;12.82;;;6.03;;
65665;SDS011;52365;47.464;18.976;2023-10-31T01:40:19;12.40;;;6.25;;
65665;SDS011;52365;47.464;18.976;2023-10-31T01:40:40;11.60;;;5.78;;
65665;SDS011;52365;47.464;18.976;2023-10-31T01:41:01;14.52;;;6.00;;
65665;SDS011;52365;47.464;18.976;2023-10-31T01:41:23;14.65;;;6.28;;
65665;SDS011;52365;47.464;18.976;2023-10-31T01:41:44;14.82;;;6.40;;
65665;SDS011;52365;47.464;18.976;2023-10-31T01:42:06;11.12;;;5.95;;
65665;SDS011;52365;47.464;18.976;2023-10-31T01:42:27;11.40;;;5.95;;
65665;SDS011;52365;47.464;18.976;2023-10-31T01:42:48;11.95;;;6.00;;
65665;SDS011;52365;47.464;18.976;2023-10-31T01:43:09;12.20;;;6.10;;
65665;SDS011;52365;47.464;18.976;2023-10-31T01:43:34;12.98;;;6.47;;
65665;SDS011;52365;47.464;18.976;2023-10-31T01:43:57;14.02;;;6.35;;
65665;SDS011;52365;47.464;18.976;2023-10-31T01:44:18;10.95;;;6.00;;
65665;SDS011;52365;47.464;18.976;2023-10-31T01:44:39;10.70;;;5.85;;
65665;SDS011;52365;47.464;18.976;2023-10-31T01:45:00;11.73;;;5.90;;
65665;SDS011;52365;47.464;18.976;2023-10-31T01:45:21;13.02;;;6.10;;
65665;SDS011;52365;47.464;18.976;2023-10-31T01:45:42;12.95;;;6.00;;
65665;SDS011;52365;47.464;18.976;2023-10-31T01:46:03;13.27;;;5.82;;
65665;SDS011;52365;47.464;18.976;2023-10-31T01:46:25;11.12;;;6.22;;
65665;SDS011;52365;47.464;18.976;2023-10-31T01:46:46;13.07;;;6.50;;
65665;SDS011;52365;47.464;18.976;2023-10-31T01:47:07;12.57;;;6.35;;
65665;SDS011;52365;47.464;18.976;2023-10-31T01:47:28;11.77;;;6.30;;
65665;SDS011;52365;47.464;18.976;2023-10-31T01:47:50;11.18;;;6.40;;
65665;SDS011;52365;47.464;18.976;2023-10-31T01:48:11;12.93;;;6.35;;
65665;SDS011;52365;47.464;18.976;2023-10-31T01:48:28;12.95;;;6.18;;
65665;SDS011;52365;47.464;18.976;2023-10-31T01:48:50;10.82;;;5.90;;
65665;SDS011;52365;47.464;18.976;2023-10-31T01:49:12;11.23;;;5.75;;
65665;SDS011;52365;47.464;18.976;2023-10-31T01:49:37;9.93;;;5.65;;
65665;SDS011;52365;47.464;18.976;2023-10-31T01:49:59;11.48;;;6.15;;
65665;SDS011;52365;47.464;18.976;2023-10-31T01:50:20;14.68;;;6.07;;
65665;SDS011;52365;47.464;18.976;2023-10-31T01:50:42;11.07;;;6.10;;
65665;SDS011;52365;47.464;18.976;2023-10-31T01:51:03;9.90;;;5.87;;
65665;SDS011;52365;47.464;18.976;2023-10-31T01:51:25;11.98;;;5.72;;
65665;SDS011;52365;47.464;18.976;2023-10-31T01:51:47;9.45;;;5.45;;
65665;SDS011;52365;47.464;18.976;2023-10-31T01:52:09;10.20;;;5.50;;
65665;SDS011;52365;47.464;18.976;2023-10-31T01:52:30;11.63;;;5.95;;
65665;SDS011;52365;47.464;18.976;2023-10-31T01:52:53;12.37;;;6.05;;
65665;SDS011;52365;47.464;18.976;2023-10-31T01:53:14;12.00;;;6.05;;
65665;SDS011;52365;47.464;18.976;2023-10-31T01:53:35;9.55;;;5.60;;
65665;SDS011;52365;47.464;18.976;2023-10-31T01:53:57;9.90;;;5.70;;
65665;SDS011;52365;47.464;18.976;2023-10-31T01:54:18;10.57;;;5.78;;
65665;SDS011;52365;47.464;18.976;2023-10-31T01:54:39;11.40;;;5.95;;
65665;SDS011;52365;47.464;18.976;2023-10-31T01:55:02;12.32;;;5.90;;
65665;SDS011;52365;47.464;18.976;2023-10-31T01:55:23;13.25;;;6.03;;
65665;SDS011;52365;47.464;18.976;2023-10-31T01:55:48;12.02;;;6.00;;
65665;SDS011;52365;47.464;18.976;2023-10-31T01:56:09;11.95;;;5.70;;
65665;SDS011;52365;47.464;18.976;2023-10-31T01:56:30;10.95;;;5.95;;
65665;SDS011;52365;47.464;18.976;2023-10-31T01:56:53;11.55;;;6.05;;
65665;SDS011;52365;47.464;18.976;2023-10-31T01:57:18;12.90;;;5.82;;
65665;SDS011;52365;47.464;18.976;2023-10-31T01:57:42;11.60;;;5.90;;
65665;SDS011;52365;47.464;18.976;2023-10-31T01:58:06;11.02;;;5.65;;
65665;SDS011;52365;47.464;18.976;2023-10-31T01:58:31;11.48;;;5.90;;
65665;SDS011;52365;47.464;18.976;2023-10-31T01:58:55;10.95;;;6.10;;
65665;SDS011;52365;47.464;18.976;2023-10-31T01:59:16;10.88;;;5.93;;
65665;SDS011;52365;47.464;18.976;2023-10-31T01:59:37;11.55;;;5.68;;
65665;SDS011;52365;47.464;18.976;2023-10-31T01:59:59;12.45;;;5.57;;
65665;SDS011;52365;47.464;18.976;2023-10-31T02:00:21;11.80;;;6.18;;
65665;SDS011;52365;47.464;18.976;2023-10-31T02:00:42;10.35;;;5.72;;
65665;SDS011;52365;47.464;18.976;2023-10-31T02:01:04;12.45;;;5.65;;
65665;SDS011;52365;47.464;18.976;2023-10-31T02:01:26;12.57;;;5.70;;
65665;SDS011;52365;47.464;18.976;2023-10-31T02:01:48;11.55;;;6.10;;
65665;SDS011;52365;47.464;18.976;2023-10-31T02:02:10;11.43;;;6.15;;
65665;SDS011;52365;47.464;18.976;2023-10-31T02:02:31;10.07;;;5.75;;
65665;SDS011;52365;47.464;18.976;2023-10-31T02:02:53;10.98;;;5.68;;
65665;SDS011;52365;47.464;18.976;2023-10-31T02:03:15;10.57;;;5.72;;
65665;SDS011;52365;47.464;18.976;2023-10-31T02:03:37;13.00;;;5.70;;